Time;durP1;ratioP1;P1;durP2;ratioP2;P2;SDS_P1;SDS_P2;PMS_P1;PMS_P2;Temp;Humidity;BMP_temperature;BMP_pressure;BME280_temperature;BME280_humidity;BME280_pressure;Samples;Min_cycle;Max_cycle;Signal;HPM_P1;HPM_P2
2024/02/04 00:00:26;;;;;;;2.87;1.90;;;9.40;99.90;;;;;;5048091;28;20607;-61
2024/02/04 00:02:52;;;;;;;3.77;2.27;;;9.40;99.90;;;;;;5041991;28;20175;-60
2024/02/04 00:05:18;;;;;;;2.50;1.77;;;9.40;99.90;;;;;;5028798;28;20215;-61
2024/02/04 00:07:44;;;;;;;6.07;3.47;;;9.40;99.90;;;;;;5033253;28;20178;-60
2024/02/04 00:10:10;;;;;;;1.97;1.60;;;9.50;99.90;;;;;;5049809;28;20211;-61
2024/02/04 00:12:35;;;;;;;2.50;2.00;;;9.50;99.90;;;;;;5041759;28;20258;-61
2024/02/04 00:15:02;;;;;;;2.23;1.40;;;9.50;99.90;;;;;;5049445;28;20214;-60
2024/02/04 00:17:31;;;;;;;2.60;1.30;;;9.40;99.90;;;;;;5049499;28;20199;-60
2024/02/04 00:19:57;;;;;;;2.67;1.27;;;9.50;99.90;;;;;;5049754;28;20570;-60
2024/02/04 00:22:22;;;;;;;2.13;1.07;;;9.50;99.90;;;;;;5023365;28;20204;-60
2024/02/04 00:24:48;;;;;;;1.40;1.00;;;9.50;99.90;;;;;;5043445;28;20534;-61
2024/02/04 00:27:13;;;;;;;3.10;1.27;;;9.50;99.90;;;;;;5048940;28;20210;-60
2024/02/04 00:29:39;;;;;;;1.37;0.90;;;9.50;99.90;;;;;;5033387;28;20207;-61
2024/02/04 00:32:05;;;;;;;1.07;0.80;;;9.50;99.90;;;;;;5035586;28;20191;-59
2024/02/04 00:34:30;;;;;;;3.00;0.73;;;9.50;99.90;;;;;;5028605;28;20208;-60
2024/02/04 00:36:56;;;;;;;2.40;1.00;;;9.50;99.90;;;;;;5031836;28;20188;-60
2024/02/04 00:39:21;;;;;;;0.80;0.63;;;9.50;99.90;;;;;;5020680;28;20282;-61
2024/02/04 00:41:47;;;;;;;0.97;0.70;;;9.50;99.90;;;;;;5041781;28;20184;-60
2024/02/04 00:44:13;;;;;;;2.07;1.20;;;9.50;99.90;;;;;;5049809;28;20187;-60
2024/02/04 00:46:38;;;;;;;0.97;0.80;;;9.40;99.90;;;;;;5012538;28;20267;-61
2024/02/04 00:49:04;;;;;;;0.70;0.70;;;9.40;99.90;;;;;;4994348;28;20705;-60
2024/02/04 00:51:30;;;;;;;1.47;1.10;;;9.40;99.90;;;;;;5030970;28;20197;-60
2024/02/04 00:53:55;;;;;;;1.30;1.00;;;9.30;99.90;;;;;;5045494;28;20738;-60
2024/02/04 00:56:21;;;;;;;1.40;1.10;;;9.40;99.90;;;;;;5034738;28;20272;-60
2024/02/04 00:58:46;;;;;;;1.10;1.00;;;9.40;99.90;;;;;;5020393;28;20282;-61
2024/02/04 01:01:12;;;;;;;2.27;0.80;;;9.40;99.90;;;;;;5021178;28;20295;-60
2024/02/04 01:03:38;;;;;;;1.03;0.90;;;9.50;99.90;;;;;;5029476;28;20208;-61
2024/02/04 01:06:03;;;;;;;0.90;0.70;;;9.40;99.90;;;;;;5027266;28;20183;-60
2024/02/04 01:08:29;;;;;;;1.20;0.80;;;9.40;99.90;;;;;;5026750;28;20256;-60
2024/02/04 01:10:54;;;;;;;1.13;0.70;;;9.40;99.90;;;;;;5053336;28;20179;-59
2024/02/04 01:13:20;;;;;;;0.50;0.50;;;9.40;99.90;;;;;;5051832;28;20199;-59
2024/02/04 01:15:48;;;;;;;0.93;0.60;;;9.40;99.90;;;;;;5027151;28;20670;-60
2024/02/04 01:18:14;;;;;;;0.90;0.70;;;9.40;99.90;;;;;;5036729;28;20723;-60
2024/02/04 01:20:40;;;;;;;1.40;0.67;;;9.30;99.90;;;;;;5054371;28;20243;-60
2024/02/04 01:23:05;;;;;;;1.83;0.80;;;9.30;99.90;;;;;;5023284;28;20190;-60
2024/02/04 01:25:31;;;;;;;0.53;0.53;;;9.30;99.90;;;;;;5049665;28;20651;-59
2024/02/04 01:27:56;;;;;;;1.60;0.77;;;9.30;99.90;;;;;;5023671;28;20185;-59
2024/02/04 01:30:22;;;;;;;1.50;0.90;;;9.30;99.90;;;;;;5044646;28;20207;-56
2024/02/04 01:32:47;;;;;;;0.63;0.50;;;9.30;99.90;;;;;;5037778;28;20180;-60
2024/02/04 01:35:15;;;;;;;0.70;0.50;;;9.30;99.90;;;;;;5019114;28;20235;-60
2024/02/04 01:37:40;;;;;;;0.80;0.60;;;9.20;99.90;;;;;;5043265;28;20639;-60
2024/02/04 01:40:07;;;;;;;0.80;0.50;;;9.20;99.90;;;;;;5036246;28;20203;-60
2024/02/04 01:42:33;;;;;;;0.90;0.43;;;9.10;99.90;;;;;;5042376;28;20234;-60
2024/02/04 01:44:59;;;;;;;0.87;0.60;;;9.20;99.90;;;;;;5035062;28;20206;-60
2024/02/04 01:47:25;;;;;;;1.67;0.80;;;9.10;99.90;;;;;;5034337;28;20298;-60
2024/02/04 01:49:50;;;;;;;0.70;0.50;;;9.20;99.90;;;;;;5033310;28;20216;-58
2024/02/04 01:52:17;;;;;;;0.73;0.50;;;9.20;99.90;;;;;;5028205;28;20199;-60
2024/02/04 01:54:43;;;;;;;0.90;0.50;;;9.10;99.90;;;;;;5035269;28;20207;-60
2024/02/04 01:57:10;;;;;;;0.60;0.53;;;9.10;99.90;;;;;;5050747;28;20244;-60
2024/02/04 01:59:39;;;;;;;0.67;0.40;;;9.10;99.90;;;;;;5026341;28;20226;-60
2024/02/04 02:02:05;;;;;;;1.10;0.50;;;9.10;99.90;;;;;;5044126;28;20180;-60
2024/02/04 02:04:31;;;;;;;2.03;0.70;;;9.00;99.90;;;;;;5025120;28;20253;-59
2024/02/04 02:06:59;;;;;;;1.73;0.60;;;9.00;99.90;;;;;;5042406;28;20651;-60
2024/02/04 02:09:26;;;;;;;1.20;0.43;;;9.00;99.90;;;;;;5048135;28;20447;-60
2024/02/04 02:12:14;;;;;;;1.40;0.30;;;9.00;99.90;;;;;;5029913;28;20260;-60
2024/02/04 02:14:42;;;;;;;0.47;0.23;;;9.00;99.90;;;;;;5050701;28;20202;-59
2024/02/04 02:17:17;;;;;;;1.50;0.43;;;9.10;99.90;;;;;;5050259;28;20179;-60
2024/02/04 02:19:49;;;;;;;0.40;0.30;;;9.10;99.90;;;;;;5035499;28;20666;-59
2024/02/04 02:22:20;;;;;;;1.53;0.30;;;9.10;99.90;;;;;;5025893;28;20183;-60
2024/02/04 02:24:47;;;;;;;0.73;0.27;;;9.00;99.90;;;;;;5019802;28;20249;-60
2024/02/04 02:27:12;;;;;;;0.97;0.30;;;9.00;99.90;;;;;;5034296;28;20279;-60
2024/02/04 02:29:38;;;;;;;0.40;0.20;;;9.00;99.90;;;;;;5026875;28;20291;-59
2024/02/04 02:32:04;;;;;;;0.20;0.20;;;8.90;99.90;;;;;;5034062;28;20641;-60
2024/02/04 02:34:30;;;;;;;0.30;0.27;;;9.00;99.90;;;;;;5024344;28;20246;-60
2024/02/04 02:37:11;;;;;;;0.77;0.40;;;9.00;99.90;;;;;;5033516;28;20184;-58
2024/02/04 02:40:00;;;;;;;0.20;0.20;;;9.00;99.90;;;;;;5030907;28;20195;-59
2024/02/04 02:42:26;;;;;;;0.20;0.20;;;9.00;99.90;;;;;;5046781;28;20272;-58
2024/02/04 02:44:54;;;;;;;0.33;0.20;;;8.90;99.90;;;;;;5025604;28;20188;-59
2024/02/04 02:47:22;;;;;;;0.20;0.20;;;9.00;99.90;;;;;;5035291;28;20211;-58
2024/02/04 02:49:50;;;;;;;0.20;0.20;;;8.90;99.90;;;;;;5022128;28;20218;-56
2024/02/04 02:52:16;;;;;;;0.87;0.17;;;9.00;99.90;;;;;;5030318;28;20188;-58
2024/02/04 02:54:41;;;;;;;0.10;0.10;;;9.00;99.90;;;;;;5033764;28;20211;-60
2024/02/04 02:57:07;;;;;;;0.73;0.27;;;9.00;99.90;;;;;;5035377;28;20267;-59
2024/02/04 02:59:32;;;;;;;0.57;0.20;;;9.00;99.90;;;;;;5048011;28;20199;-59
2024/02/04 03:01:58;;;;;;;2.43;0.37;;;9.00;99.90;;;;;;5033931;28;20676;-58
2024/02/04 03:04:23;;;;;;;0.20;0.20;;;9.00;99.90;;;;;;5031565;28;20180;-59
2024/02/04 03:06:49;;;;;;;0.23;0.20;;;8.90;99.90;;;;;;5019597;28;20217;-60
2024/02/04 03:09:14;;;;;;;0.10;0.10;;;9.00;99.90;;;;;;5025945;28;20242;-59
2024/02/04 03:11:40;;;;;;;0.57;0.20;;;9.00;99.90;;;;;;5025938;28;20734;-58
2024/02/04 03:14:06;;;;;;;0.10;0.10;;;9.00;99.90;;;;;;5021023;28;20753;-60
2024/02/04 03:16:31;;;;;;;0.10;0.10;;;9.00;99.90;;;;;;5045750;28;20186;-60
2024/02/04 03:18:57;;;;;;;0.10;0.10;;;9.10;99.90;;;;;;5025885;28;20200;-60
2024/02/04 03:21:22;;;;;;;0.93;0.20;;;9.10;99.90;;;;;;5019972;28;20261;-60
2024/02/04 03:23:48;;;;;;;0.10;0.10;;;9.10;99.90;;;;;;5041763;28;20560;-60
2024/02/04 03:26:20;;;;;;;0.20;0.20;;;9.00;99.90;;;;;;5034491;28;20187;-60
2024/02/04 03:28:45;;;;;;;0.10;0.10;;;9.10;99.90;;;;;;5038293;28;20222;-61
2024/02/04 03:31:11;;;;;;;0.20;0.13;;;9.00;99.90;;;;;;5020772;28;20179;-59
2024/02/04 03:33:37;;;;;;;0.10;0.10;;;9.00;99.90;;;;;;5047191;28;20308;-60
2024/02/04 03:36:02;;;;;;;0.20;0.20;;;9.00;99.90;;;;;;5036460;28;20191;-61
2024/02/04 03:38:28;;;;;;;0.17;0.17;;;9.00;99.90;;;;;;5041925;28;20191;-60
2024/02/04 03:40:54;;;;;;;0.17;0.17;;;9.00;99.90;;;;;;5040524;28;20283;-60
2024/02/04 03:43:20;;;;;;;0.20;0.20;;;9.00;99.90;;;;;;5026154;28;20251;-59
2024/02/04 03:45:45;;;;;;;0.40;0.20;;;9.00;99.90;;;;;;5014161;28;20569;-61
2024/02/04 03:48:11;;;;;;;0.20;0.20;;;9.10;99.90;;;;;;5023295;28;20592;-61
2024/02/04 03:50:36;;;;;;;0.20;0.20;;;9.10;99.90;;;;;;5034829;28;20197;-60
2024/02/04 03:53:02;;;;;;;0.10;0.10;;;9.10;99.90;;;;;;5030558;28;20313;-60
2024/02/04 03:55:28;;;;;;;1.70;0.20;;;9.10;99.90;;;;;;5029231;28;20271;-60
2024/02/04 03:57:57;;;;;;;0.20;0.20;;;9.00;99.90;;;;;;5025775;28;20176;-58
2024/02/04 04:00:22;;;;;;;1.60;0.13;;;9.10;99.90;;;;;;5011502;28;20556;-59
2024/02/04 04:02:48;;;;;;;2.00;0.20;;;9.10;99.90;;;;;;5024182;28;20192;-60
2024/02/04 04:05:13;;;;;;;0.10;0.10;;;9.10;99.90;;;;;;5017603;28;20179;-59
2024/02/04 04:07:40;;;;;;;0.77;0.10;;;9.10;99.90;;;;;;5023428;28;20183;-60
2024/02/04 04:10:06;;;;;;;0.20;0.20;;;9.10;99.90;;;;;;5026161;28;20234;-58
2024/02/04 04:12:32;;;;;;;0.10;0.10;;;9.10;99.90;;;;;;5018902;28;20549;-60
2024/02/04 04:14:57;;;;;;;0.10;0.10;;;9.10;99.90;;;;;;5023168;28;20211;-59
2024/02/04 04:17:23;;;;;;;0.10;0.10;;;9.10;99.90;;;;;;5012207;28;20727;-60
2024/02/04 04:19:52;;;;;;;0.23;0.20;;;9.10;99.90;;;;;;5032912;28;20192;-61
2024/02/04 04:22:17;;;;;;;0.30;0.20;;;9.10;99.90;;;;;;5042202;28;20183;-59
2024/02/04 04:24:43;;;;;;;0.20;0.20;;;9.10;99.90;;;;;;5016869;28;20195;-61
2024/02/04 04:27:09;;;;;;;0.10;0.10;;;9.10;99.90;;;;;;5025029;28;20198;-61
2024/02/04 04:29:34;;;;;;;0.97;0.20;;;9.10;99.90;;;;;;5034891;28;20642;-60
2024/02/04 04:32:00;;;;;;;0.20;0.20;;;9.20;99.90;;;;;;5032659;28;20189;-60
2024/02/04 04:34:25;;;;;;;1.03;0.30;;;9.20;99.90;;;;;;5037448;28;20713;-61
2024/02/04 04:36:51;;;;;;;0.13;0.13;;;9.20;99.90;;;;;;5029026;28;20268;-60
2024/02/04 04:39:17;;;;;;;0.27;0.20;;;9.20;99.90;;;;;;5037500;28;20214;-60
2024/02/04 04:41:44;;;;;;;0.20;0.20;;;9.10;99.90;;;;;;5044546;28;20191;-61
2024/02/04 04:44:10;;;;;;;0.10;0.10;;;9.10;99.90;;;;;;5028832;28;20199;-59
2024/02/04 04:46:39;;;;;;;0.10;0.10;;;9.20;99.90;;;;;;5023884;28;20200;-60
2024/02/04 04:49:05;;;;;;;0.20;0.20;;;9.20;99.90;;;;;;5034314;28;20212;-60
2024/02/04 04:51:30;;;;;;;0.20;0.20;;;9.20;99.90;;;;;;5013499;28;20187;-61
2024/02/04 04:53:56;;;;;;;0.20;0.20;;;9.30;99.90;;;;;;5030712;28;20211;-60
2024/02/04 04:56:21;;;;;;;0.27;0.20;;;9.40;99.90;;;;;;5016553;28;20193;-57
2024/02/04 04:58:47;;;;;;;0.20;0.20;;;9.30;99.90;;;;;;5038353;28;20210;-61
2024/02/04 05:01:13;;;;;;;1.90;0.30;;;9.30;99.90;;;;;;5036795;28;20532;-59
2024/02/04 05:03:39;;;;;;;0.30;0.30;;;9.30;99.90;;;;;;5038906;28;20184;-60
2024/02/04 05:06:05;;;;;;;0.53;0.30;;;9.30;99.90;;;;;;5028112;28;20637;-61
2024/02/04 05:08:30;;;;;;;0.57;0.30;;;9.20;99.90;;;;;;5033426;28;20192;-61
2024/02/04 05:10:56;;;;;;;2.30;0.20;;;9.30;99.90;;;;;;5046353;28;20194;-60
2024/02/04 05:13:21;;;;;;;0.40;0.40;;;9.30;99.90;;;;;;5016510;28;20672;-56
2024/02/04 05:15:47;;;;;;;0.50;0.30;;;9.30;99.90;;;;;;5032351;28;20710;-60
2024/02/04 05:18:12;;;;;;;1.17;0.67;;;9.30;99.90;;;;;;5023922;28;20734;-60
2024/02/04 05:20:38;;;;;;;0.70;0.50;;;9.40;99.90;;;;;;5035073;28;20609;-59
2024/02/04 05:23:04;;;;;;;0.70;0.57;;;9.40;99.90;;;;;;5029186;28;20182;-59
2024/02/04 05:25:29;;;;;;;1.03;0.60;;;9.40;99.90;;;;;;5050080;28;20662;-59
2024/02/04 05:27:55;;;;;;;1.00;0.70;;;9.40;99.90;;;;;;5015057;28;20206;-59
2024/02/04 05:30:20;;;;;;;1.20;0.90;;;9.40;99.90;;;;;;5037445;28;20724;-60
2024/02/04 05:32:46;;;;;;;1.63;1.00;;;9.40;99.90;;;;;;5033709;28;20640;-59
2024/02/04 05:35:12;;;;;;;2.20;1.50;;;9.40;99.90;;;;;;5043906;28;20723;-59
2024/02/04 05:37:37;;;;;;;4.13;2.10;;;9.40;99.90;;;;;;5050277;28;20265;-59
2024/02/04 05:40:04;;;;;;;4.07;2.60;;;9.40;99.90;;;;;;5038534;28;20228;-60
2024/02/04 05:42:31;;;;;;;5.53;3.40;;;9.40;99.90;;;;;;5023307;28;20585;-57
2024/02/04 05:44:57;;;;;;;4.43;3.00;;;9.40;99.90;;;;;;5037663;28;20183;-58
2024/02/04 05:47:23;;;;;;;5.27;3.33;;;9.40;99.90;;;;;;5047269;28;20187;-60
2024/02/04 05:49:48;;;;;;;7.43;3.50;;;9.50;99.90;;;;;;5036178;28;20298;-61
2024/02/04 05:52:15;;;;;;;6.60;3.67;;;9.50;99.90;;;;;;5027240;28;20192;-58
2024/02/04 05:54:40;;;;;;;5.03;3.20;;;9.50;99.90;;;;;;5042557;28;20200;-58
2024/02/04 05:57:06;;;;;;;4.27;3.00;;;9.50;99.90;;;;;;5020919;28;20662;-54
2024/02/04 05:59:33;;;;;;;4.77;3.00;;;9.50;99.90;;;;;;5040251;28;20207;-55
2024/02/04 06:01:59;;;;;;;4.70;2.93;;;9.40;99.90;;;;;;5034833;28;20714;-59
2024/02/04 06:04:24;;;;;;;6.60;3.10;;;9.50;99.90;;;;;;5037524;28;20275;-58
2024/02/04 06:06:50;;;;;;;4.60;2.87;;;9.40;99.90;;;;;;5028432;28;20176;-57
2024/02/04 06:09:15;;;;;;;6.00;2.80;;;9.40;99.90;;;;;;5029747;28;20299;-57
2024/02/04 06:11:46;;;;;;;6.57;3.00;;;9.40;99.90;;;;;;5051075;28;20325;-57
2024/02/04 06:14:11;;;;;;;6.70;3.50;;;9.40;99.90;;;;;;5028032;28;20192;-58
2024/02/04 06:16:37;;;;;;;4.03;2.67;;;9.40;99.90;;;;;;5037824;28;21276;-58
2024/02/04 06:19:02;;;;;;;4.63;2.80;;;9.40;99.90;;;;;;5039600;28;20219;-58
2024/02/04 06:21:28;;;;;;;4.60;2.80;;;9.40;99.90;;;;;;5039663;28;20182;-58
2024/02/04 06:23:53;;;;;;;4.63;2.70;;;9.40;99.90;;;;;;5017879;28;20191;-57
2024/02/04 06:26:19;;;;;;;5.50;2.80;;;9.50;99.90;;;;;;5027360;28;20594;-58
2024/02/04 06:28:46;;;;;;;4.33;2.87;;;9.40;99.90;;;;;;5035035;28;20286;-59
2024/02/04 06:31:12;;;;;;;5.13;2.90;;;9.40;99.90;;;;;;5019544;28;20724;-58
2024/02/04 06:33:37;;;;;;;3.97;2.80;;;9.40;99.90;;;;;;5032787;28;20325;-58
2024/02/04 06:36:08;;;;;;;4.37;2.80;;;9.50;99.90;;;;;;5046706;28;20554;-57
2024/02/04 06:38:33;;;;;;;6.13;3.17;;;9.40;99.90;;;;;;5021412;28;20187;-58
2024/02/04 06:40:59;;;;;;;4.30;2.80;;;9.40;99.90;;;;;;5032461;28;20194;-56
2024/02/04 06:43:24;;;;;;;6.23;3.63;;;9.40;99.90;;;;;;5047967;28;20210;-58
2024/02/04 06:45:50;;;;;;;4.63;2.63;;;9.40;99.90;;;;;;5029649;28;20192;-58
2024/02/04 06:48:19;;;;;;;4.93;3.50;;;9.40;99.90;;;;;;5030545;28;20183;-56
2024/02/04 06:50:45;;;;;;;8.07;4.23;;;9.40;99.90;;;;;;5041877;28;20191;-56
2024/02/04 06:53:11;;;;;;;6.30;3.60;;;9.40;99.90;;;;;;5043263;28;20599;-57
2024/02/04 06:55:36;;;;;;;5.93;3.37;;;9.50;99.90;;;;;;5016659;28;20198;-59
2024/02/04 06:58:02;;;;;;;5.70;3.70;;;9.50;99.90;;;;;;5009706;28;20188;-59
2024/02/04 07:00:27;;;;;;;5.53;3.43;;;9.50;99.90;;;;;;5023231;28;20571;-58
2024/02/04 07:02:53;;;;;;;7.30;3.77;;;9.40;99.90;;;;;;5045337;28;20534;-57
2024/02/04 07:05:21;;;;;;;5.73;3.63;;;9.50;99.90;;;;;;5046268;28;20651;-58
2024/02/04 07:07:47;;;;;;;6.13;3.80;;;9.50;99.90;;;;;;5033981;28;20215;-58
2024/02/04 07:10:13;;;;;;;6.63;4.03;;;9.50;99.90;;;;;;5033505;28;20288;-56
2024/02/04 07:12:39;;;;;;;5.40;3.30;;;9.50;99.90;;;;;;5018351;28;20858;-60
2024/02/04 07:15:05;;;;;;;5.23;3.20;;;9.40;99.90;;;;;;5008687;28;20640;-60
2024/02/04 07:17:30;;;;;;;4.37;2.87;;;9.40;99.90;;;;;;5035813;28;20666;-57
2024/02/04 07:19:56;;;;;;;4.57;2.87;;;9.40;99.90;;;;;;5032967;28;20467;-54
2024/02/04 07:22:21;;;;;;;5.50;2.87;;;9.50;99.90;;;;;;5035068;28;20187;-56
2024/02/04 07:24:47;;;;;;;4.53;3.00;;;9.40;99.90;;;;;;5033206;28;20271;-60
2024/02/04 07:27:13;;;;;;;4.53;3.10;;;9.40;99.90;;;;;;5016678;28;20255;-59
2024/02/04 07:29:38;;;;;;;5.50;2.77;;;9.40;99.90;;;;;;5037453;28;20577;-57
2024/02/04 07:32:04;;;;;;;5.60;3.50;;;9.50;99.90;;;;;;5027439;28;20247;-57
2024/02/04 07:34:30;;;;;;;5.63;3.33;;;9.50;99.90;;;;;;5046091;28;20294;-58
2024/02/04 07:36:55;;;;;;;7.27;2.73;;;9.50;99.90;;;;;;5035774;28;20179;-58
2024/02/04 07:39:21;;;;;;;5.93;3.27;;;9.50;99.90;;;;;;5041172;28;20294;-56
2024/02/04 07:41:46;;;;;;;3.73;2.63;;;9.50;99.90;;;;;;5041759;28;20228;-58
2024/02/04 07:44:13;;;;;;;4.57;2.70;;;9.50;99.90;;;;;;5009385;28;20239;-56
2024/02/04 07:46:38;;;;;;;4.20;2.60;;;9.50;99.90;;;;;;5007077;28;20186;-53
2024/02/04 07:49:04;;;;;;;4.23;2.70;;;9.60;99.90;;;;;;5026237;28;20223;-55
2024/02/04 07:51:30;;;;;;;4.13;2.47;;;9.60;99.90;;;;;;5044083;28;20194;-57
2024/02/04 07:53:56;;;;;;;3.63;2.47;;;9.60;99.90;;;;;;5015940;28;20200;-57
2024/02/04 07:56:21;;;;;;;4.33;2.90;;;9.60;99.90;;;;;;5024918;28;20187;-57
2024/02/04 07:58:47;;;;;;;5.20;2.40;;;9.60;99.90;;;;;;5025095;28;20286;-56
2024/02/04 08:01:12;;;;;;;3.77;2.27;;;9.60;99.90;;;;;;5033902;28;20656;-53
2024/02/04 08:03:38;;;;;;;4.90;2.63;;;9.60;99.90;;;;;;5044703;28;20291;-57
2024/02/04 08:06:04;;;;;;;2.47;2.00;;;9.70;99.90;;;;;;5040498;28;20195;-57
2024/02/04 08:08:29;;;;;;;2.97;1.80;;;9.70;99.90;;;;;;5013323;28;20275;-56
2024/02/04 08:10:56;;;;;;;3.20;2.00;;;9.70;99.90;;;;;;5022951;28;20187;-55
2024/02/04 08:13:22;;;;;;;2.37;1.53;;;9.80;99.90;;;;;;5035991;28;20192;-55
2024/02/04 08:15:47;;;;;;;1.50;1.27;;;9.80;99.90;;;;;;5051825;28;20187;-56
2024/02/04 08:18:13;;;;;;;2.37;0.70;;;9.80;99.90;;;;;;5036126;28;20290;-54
2024/02/04 08:20:38;;;;;;;3.47;1.00;;;9.80;99.90;;;;;;5035584;28;20333;-57
2024/02/04 08:23:04;;;;;;;0.93;0.77;;;9.90;99.90;;;;;;5036182;28;20218;-57
2024/02/04 08:25:29;;;;;;;1.43;1.00;;;9.90;99.90;;;;;;5043019;28;20195;-56
2024/02/04 08:27:55;;;;;;;1.63;0.90;;;9.90;99.90;;;;;;5045151;28;20347;-52
2024/02/04 08:30:20;;;;;;;2.77;1.57;;;9.90;99.90;;;;;;5035664;28;20672;-55
2024/02/04 08:32:46;;;;;;;2.27;1.00;;;9.90;99.90;;;;;;5036737;28;20677;-56
2024/02/04 08:35:12;;;;;;;6.60;3.50;;;9.90;99.90;;;;;;5017567;28;20248;-56
2024/02/04 08:37:37;;;;;;;3.17;1.47;;;9.90;99.90;;;;;;5049592;28;20187;-58
2024/02/04 08:40:05;;;;;;;2.27;1.00;;;9.90;99.90;;;;;;5024018;28;20234;-56
2024/02/04 08:42:31;;;;;;;4.37;1.50;;;9.90;99.90;;;;;;5016175;28;20215;-55
2024/02/04 08:44:56;;;;;;;1.80;1.07;;;9.90;99.90;;;;;;5035732;28;20218;-58
2024/02/04 08:47:22;;;;;;;1.17;0.80;;;9.90;99.90;;;;;;5034002;28;20191;-59
2024/02/04 08:49:48;;;;;;;0.73;0.70;;;9.90;99.90;;;;;;5016025;28;20230;-57
2024/02/04 08:52:13;;;;;;;0.50;0.43;;;10.00;99.90;;;;;;5031334;28;20562;-55
2024/02/04 08:54:39;;;;;;;0.80;0.47;;;10.10;99.90;;;;;;5032658;28;20322;-56
2024/02/04 08:57:04;;;;;;;1.00;0.40;;;10.10;99.90;;;;;;5019719;28;20202;-58
2024/02/04 08:59:30;;;;;;;0.40;0.30;;;10.10;99.90;;;;;;5042267;28;20203;-55
2024/02/04 09:01:55;;;;;;;1.27;0.40;;;10.20;99.90;;;;;;5035024;28;20189;-54
2024/02/04 09:04:21;;;;;;;0.80;0.30;;;10.20;99.90;;;;;;5028450;28;20196;-58
2024/02/04 09:06:47;;;;;;;0.60;0.30;;;10.20;99.90;;;;;;5035404;28;20324;-58
2024/02/04 09:09:12;;;;;;;0.30;0.30;;;10.30;99.90;;;;;;5034430;28;20219;-56
2024/02/04 09:11:38;;;;;;;0.60;0.50;;;10.20;99.90;;;;;;5038116;28;20647;-54
2024/02/04 09:14:04;;;;;;;0.70;0.30;;;10.20;99.90;;;;;;5019356;28;20220;-57
2024/02/04 09:16:29;;;;;;;1.50;0.60;;;10.30;99.90;;;;;;5030223;28;20611;-57
2024/02/04 09:18:55;;;;;;;0.53;0.40;;;10.30;99.90;;;;;;5016898;28;20668;-56
2024/02/04 09:21:21;;;;;;;1.33;0.40;;;10.30;99.90;;;;;;5038981;28;20190;-56
2024/02/04 09:23:47;;;;;;;0.90;0.50;;;10.30;99.90;;;;;;5039272;28;20222;-58
2024/02/04 09:26:13;;;;;;;0.30;0.30;;;10.30;99.90;;;;;;5040374;28;20643;-57
2024/02/04 09:28:38;;;;;;;2.50;0.60;;;10.40;99.90;;;;;;5034605;28;20208;-54
2024/02/04 09:31:04;;;;;;;0.73;0.53;;;10.40;99.90;;;;;;5042888;28;20197;-56
2024/02/04 09:33:30;;;;;;;0.50;0.50;;;10.30;99.90;;;;;;5032011;28;20643;-56
2024/02/04 09:35:55;;;;;;;0.70;0.53;;;10.30;99.90;;;;;;5018988;28;20584;-55
2024/02/04 09:38:21;;;;;;;1.37;0.60;;;10.40;99.90;;;;;;5044297;28;20564;-52
2024/02/04 09:40:47;;;;;;;1.27;0.87;;;10.40;99.90;;;;;;5042836;28;20237;-57
2024/02/04 09:43:12;;;;;;;1.10;0.80;;;10.40;99.90;;;;;;5035630;28;20735;-54
2024/02/04 09:45:39;;;;;;;1.57;1.10;;;10.40;99.90;;;;;;5037881;28;20187;-55
2024/02/04 09:48:08;;;;;;;4.13;1.07;;;10.50;99.90;;;;;;5033428;28;20188;-57
2024/02/04 09:50:33;;;;;;;1.20;0.90;;;10.50;99.90;;;;;;5046183;28;20689;-58
2024/02/04 09:53:00;;;;;;;1.77;0.87;;;10.50;99.90;;;;;;5028280;28;20195;-59
2024/02/04 09:55:26;;;;;;;1.13;0.70;;;10.50;99.90;;;;;;5041654;28;20260;-56
2024/02/04 09:57:52;;;;;;;0.90;0.80;;;10.50;99.90;;;;;;5030474;28;20267;-57
2024/02/04 10:00:20;;;;;;;1.10;1.00;;;10.40;99.90;;;;;;5031356;28;20299;-59
2024/02/04 10:02:48;;;;;;;3.03;1.13;;;10.50;99.90;;;;;;5034341;28;20190;-58
2024/02/04 10:05:15;;;;;;;1.13;0.77;;;10.40;99.90;;;;;;5033592;28;20273;-57
2024/02/04 10:07:40;;;;;;;1.30;1.10;;;10.40;99.90;;;;;;5037391;28;20941;-56
2024/02/04 10:10:07;;;;;;;1.27;0.70;;;10.40;99.90;;;;;;5032631;28;20235;-56
2024/02/04 10:12:35;;;;;;;0.73;0.73;;;10.50;99.90;;;;;;5027203;28;20192;-54
2024/02/04 10:15:02;;;;;;;0.97;0.63;;;10.50;99.90;;;;;;5016447;28;20203;-57
2024/02/04 10:17:30;;;;;;;1.33;0.63;;;10.60;99.90;;;;;;5022847;28;20643;-56
2024/02/04 10:19:56;;;;;;;1.73;0.60;;;10.70;99.90;;;;;;5042752;28;20585;-56
2024/02/04 10:22:21;;;;;;;1.40;1.10;;;10.90;99.90;;;;;;5042054;28;20223;-57
2024/02/04 10:24:48;;;;;;;0.60;0.43;;;11.10;99.90;;;;;;5030961;28;20246;-57
2024/02/04 10:27:15;;;;;;;2.50;1.83;;;11.20;99.90;;;;;;5036802;28;20482;-55
2024/02/04 10:29:41;;;;;;;1.63;1.10;;;11.20;99.90;;;;;;5034741;28;20260;-58
2024/02/04 10:32:07;;;;;;;0.90;0.60;;;11.40;99.90;;;;;;5038595;28;20644;-59
2024/02/04 10:34:36;;;;;;;1.73;0.87;;;11.40;99.90;;;;;;5046129;28;20206;-57
2024/02/04 10:37:01;;;;;;;0.67;0.40;;;11.40;99.90;;;;;;5031929;28;20176;-57
2024/02/04 10:39:27;;;;;;;0.30;0.30;;;11.40;99.90;;;;;;5021457;28;20255;-57
2024/02/04 10:41:53;;;;;;;0.70;0.40;;;11.40;99.90;;;;;;5014695;28;20206;-59
2024/02/04 10:44:23;;;;;;;3.43;2.43;;;11.50;99.90;;;;;;5037349;28;20289;-59
2024/02/04 10:46:50;;;;;;;0.73;0.40;;;11.60;99.90;;;;;;5049097;28;20191;-56
2024/02/04 10:49:17;;;;;;;0.63;0.30;;;11.60;99.90;;;;;;5034295;28;20234;-56
2024/02/04 10:51:44;;;;;;;0.30;0.30;;;11.60;99.90;;;;;;5037969;28;20192;-57
2024/02/04 10:54:15;;;;;;;0.30;0.30;;;11.50;99.90;;;;;;5015021;28;20231;-57
2024/02/04 10:56:46;;;;;;;2.77;1.20;;;11.60;99.90;;;;;;5042557;28;20184;-57
2024/02/04 10:59:17;;;;;;;1.73;1.10;;;11.50;99.90;;;;;;5033427;28;20281;-59
2024/02/04 11:01:43;;;;;;;2.20;0.57;;;11.40;99.90;;;;;;5048871;28;20537;-60
2024/02/04 11:04:13;;;;;;;1.27;0.90;;;11.40;99.90;;;;;;5036506;28;20239;-60
2024/02/04 11:06:41;;;;;;;0.80;0.57;;;11.40;99.90;;;;;;5038852;28;20249;-55
2024/02/04 11:09:08;;;;;;;1.43;1.00;;;11.30;99.90;;;;;;5036777;28;20675;-59
2024/02/04 11:11:34;;;;;;;1.70;0.70;;;11.30;99.90;;;;;;5019639;28;20215;-57
2024/02/04 11:14:03;;;;;;;0.60;0.50;;;11.30;99.90;;;;;;5043047;28;20564;-58
2024/02/04 11:17:03;;;;;;;0.40;0.40;;;11.30;99.90;;;;;;5046309;28;20229;-59
2024/02/04 11:20:07;;;;;;;0.50;0.50;;;11.30;99.90;;;;;;5042047;28;20226;-58
2024/02/04 11:22:35;;;;;;;0.50;0.40;;;11.20;99.90;;;;;;4994738;28;20564;-58
2024/02/04 11:25:19;;;;;;;0.57;0.50;;;11.20;99.90;;;;;;5028772;28;20638;-58
2024/02/04 11:27:46;;;;;;;1.07;0.60;;;11.10;99.90;;;;;;5017448;28;20219;-59
2024/02/04 11:30:12;;;;;;;1.17;0.67;;;11.00;99.90;;;;;;5017692;28;20211;-58
2024/02/04 11:32:37;;;;;;;0.50;0.50;;;11.00;99.90;;;;;;5029966;28;20290;-58
2024/02/04 11:35:07;;;;;;;2.70;0.60;;;11.00;99.90;;;;;;5014708;28;20214;-58
2024/02/04 11:37:33;;;;;;;0.90;0.50;;;11.10;99.90;;;;;;5020307;28;20203;-59
2024/02/04 11:39:59;;;;;;;1.20;0.87;;;11.10;99.90;;;;;;5027660;28;20577;-59
2024/02/04 11:42:31;;;;;;;0.90;0.60;;;11.10;99.90;;;;;;5024005;28;20213;-58
2024/02/04 11:45:17;;;;;;;0.53;0.50;;;11.10;99.90;;;;;;5023701;28;20179;-58
2024/02/04 11:47:42;;;;;;;0.93;0.70;;;11.00;99.90;;;;;;5023532;28;20199;-59
2024/02/04 11:50:09;;;;;;;1.07;0.70;;;11.00;99.90;;;;;;5032499;28;20214;-61
2024/02/04 11:52:35;;;;;;;1.00;0.63;;;11.00;99.90;;;;;;5041251;28;20191;-61
2024/02/04 11:55:01;;;;;;;2.03;0.60;;;11.00;99.90;;;;;;5049403;28;20206;-61
2024/02/04 11:57:28;;;;;;;1.23;0.60;;;11.00;99.90;;;;;;5039234;28;20196;-61
2024/02/04 11:59:55;;;;;;;0.97;0.80;;;11.00;99.90;;;;;;5017785;28;20668;-60
2024/02/04 12:02:20;;;;;;;0.83;0.70;;;10.90;99.90;;;;;;5016106;28;20241;-61
2024/02/04 12:04:50;;;;;;;1.50;0.50;;;10.90;99.90;;;;;;5021421;28;20200;-61
2024/02/04 12:07:16;;;;;;;0.97;0.67;;;10.90;99.90;;;;;;5020801;28;20192;-61
2024/02/04 12:09:42;;;;;;;1.50;0.70;;;10.90;99.90;;;;;;5019860;28;20942;-61
2024/02/04 12:12:08;;;;;;;2.23;0.50;;;11.10;99.90;;;;;;5044104;28;20186;-61
2024/02/04 12:14:35;;;;;;;1.73;0.50;;;11.00;99.90;;;;;;5029342;28;20767;-60
2024/02/04 12:17:10;;;;;;;1.77;0.53;;;11.00;99.90;;;;;;5035863;28;20261;-61
2024/02/04 12:19:37;;;;;;;0.50;0.50;;;10.90;99.90;;;;;;5020824;28;20287;-61
2024/02/04 12:22:09;;;;;;;2.80;0.50;;;10.90;99.90;;;;;;5037844;28;20191;-60
2024/02/04 12:24:38;;;;;;;0.50;0.50;;;10.90;99.90;;;;;;5031948;28;20614;-61
2024/02/04 12:27:05;;;;;;;0.80;0.60;;;10.90;99.90;;;;;;5031787;28;20219;-61
2024/02/04 12:29:32;;;;;;;0.70;0.40;;;10.90;99.90;;;;;;5027495;28;20199;-62
2024/02/04 12:32:02;;;;;;;0.57;0.50;;;11.00;99.90;;;;;;5036873;28;20187;-61
2024/02/04 12:34:28;;;;;;;0.83;0.60;;;11.00;99.90;;;;;;5019837;28;20204;-60
2024/02/04 12:37:00;;;;;;;0.60;0.60;;;11.00;99.90;;;;;;5023886;28;20248;-60
2024/02/04 12:39:26;;;;;;;3.53;1.03;;;11.20;99.90;;;;;;5030225;28;20614;-59
2024/02/04 12:41:52;;;;;;;0.57;0.33;;;11.30;99.90;;;;;;5024759;28;20202;-59
2024/02/04 12:44:18;;;;;;;0.60;0.40;;;11.40;99.90;;;;;;5040319;28;20663;-61
2024/02/04 12:46:44;;;;;;;0.30;0.30;;;11.40;99.90;;;;;;5037512;28;20192;-61
2024/02/04 12:49:17;;;;;;;0.97;0.60;;;11.50;99.90;;;;;;5035539;28;20222;-58